This is the latest recevied weather packets stored in our database for station/object OM8AKX-4. If no packets are shown the sender has not sent any weather packets the latest 10 day(s).
| Time | Temp. | Humidity | Pressure | Rain* | Wind** | Luminosity | Snow |
|---|---|---|---|---|---|---|---|
| 1777375072 | 6.67° C | 47% | 879.2 hPa | - | - | - | - |
| 1777374172 | 6.11° C | 48% | 879.2 hPa | - | - | - | - |
| 1777373272 | 6.11° C | 48% | 879.3 hPa | - | - | - | - |
| 1777372372 | 6.11° C | 47% | 879.2 hPa | - | - | - | - |
| 1777371472 | 6.11° C | 48% | 879.4 hPa | - | - | - | - |
| 1777370572 | 5.56° C | 49% | 879.3 hPa | - | - | - | - |
| 1777369672 | 5° C | 50% | 879.4 hPa | - | - | - | - |
| 1777368771 | 5° C | 50% | 879.5 hPa | - | - | - | - |
| 1777367872 | 5.56° C | 50% | 879.3 hPa | - | - | - | - |
| 1777366971 | 5° C | 51% | 879.4 hPa | - | - | - | - |
| 1777366071 | 5° C | 51% | 879.3 hPa | - | - | - | - |
| 1777365171 | 4.44° C | 53% | 879.2 hPa | - | - | - | - |
| 1777364271 | 4.44° C | 52% | 879.4 hPa | - | - | - | - |
| 1777363371 | 3.89° C | 52% | 879.3 hPa | - | - | - | - |
| 1777362471 | 3.89° C | 52% | 879.1 hPa | - | - | - | - |
| 1777361571 | 3.89° C | 52% | 879.3 hPa | - | - | - | - |
| 1777360671 | 4.44° C | 51% | 879.2 hPa | - | - | - | - |
| 1777359771 | 3.89° C | 51% | 879 hPa | - | - | - | - |
| 1777358870 | 3.89° C | 51% | 878.9 hPa | - | - | - | - |
| 1777357970 | 3.89° C | 51% | 878.8 hPa | - | - | - | - |
| 1777357070 | 3.89° C | 50% | 878.8 hPa | - | - | - | - |
| 1777356170 | 4.44° C | 48% | 878.9 hPa | - | - | - | - |
| 1777355271 | 5° C | 47% | 878.8 hPa | - | - | - | - |
| 1777354371 | 5.56° C | 45% | 878.7 hPa | - | - | - | - |
| 1777353471 | 5° C | 48% | 878.8 hPa | - | - | - | - |
* Rain since midnight (hover to see other rain measurements)
** Current wind speed in m/s (hover to see current wind gust speed)